Weather reports worldwide

Advertisment
Sutton bonington, United Kingdom (99025): temperature & dewpoint: 12.08.2019 02:00:00 - 18.08.2019 02:00:00 (BST)Sutton bonington, United Kingdom (99025): temperature -20cm & temperature -100cm: 12.08.2019 02:00:00 - 18.08.2019 02:00:00 (BST)Sutton bonington, United Kingdom (99025): wind speed & gusts: 12.08.2019 02:00:00 - 18.08.2019 02:00:00 (BST)Sutton bonington, United Kingdom (99025): wind direction: 12.08.2019 02:00:00 - 18.08.2019 02:00:00 (BST)Sutton bonington, United Kingdom (99025): precipitation: 12.08.2019 02:00:00 - 18.08.2019 02:00:00 (BST)
Date & Time tt [°C] td [°C] tt -20cm [°C] tt -100cm [°C] ff [km/h] ff [kn] fx [km/h] fx [kn] dd rr [mm]
18.08.2019 02:00:00 - - - - - - - - - -
18.08.2019 01:00:00 14,6 10,4 - - 9 5 - - SSW 0,0
18.08.2019 00:00:00 14,7 9,9 - - 8 4 - - SSW 0,0
17.08.2019 23:00:00 14,8 10,1 - - 8 4 - - SSW 0,0
17.08.2019 22:00:00 15,3 10,3 - - 8 4 - - SSW 0,0
17.08.2019 21:00:00 16,4 10,0 - - 8 4 - - SW 0,0
17.08.2019 20:00:00 18,4 10,7 - - 5 3 - - SW 0,0
17.08.2019 19:00:00 18,9 9,7 - - 15 8 - - W 0,0
17.08.2019 18:00:00 19,9 8,9 - - 16 9 - - WSW 0,0
17.08.2019 17:00:00 20,9 9,0 - - 15 8 - - SW 0,0
17.08.2019 16:00:00 21,2 9,6 - - 15 8 - - WSW 0,0
17.08.2019 15:00:00 20,5 8,7 - - 24 13 - - W 0,0
17.08.2019 14:00:00 20,0 8,2 - - 15 8 - - SW 0,0
17.08.2019 13:00:00 19,8 8,6 - - 21 11 - - WSW 0,0
17.08.2019 12:00:00 19,1 11,1 - - 22 12 - - W 0,0
17.08.2019 11:00:00 18,9 12,3 - - 16 9 - - WSW 0,0
17.08.2019 10:00:00 17,9 13,4 17,2 17,7 18 10 - - SW 0,0
17.08.2019 09:00:00 16,2 13,3 - - 16 9 - - SSW 0,0
17.08.2019 08:00:00 15,8 12,8 - - 15 8 - - SW 0,0
17.08.2019 07:00:00 14,6 12,3 - - 15 8 - - SSW 0,0
17.08.2019 06:00:00 14,0 11,7 - - 15 8 - - SSW 0,0
17.08.2019 05:00:00 14,1 11,7 - - 13 7 - - SW 0,0
17.08.2019 04:00:00 14,3 11,7 - - 15 8 - - SSW 0,0
17.08.2019 03:00:00 14,4 11,7 - - 16 9 - - SW 0,0
17.08.2019 02:00:00 15,1 12,1 - - 16 9 - - WSW 0,0
17.08.2019 01:00:00 16,6 15,0 - - 13 7 - - SW 0,0
17.08.2019 00:00:00 17,2 15,9 - - 13 7 - - SSW 0,0
16.08.2019 23:00:00 16,8 15,7 - - 15 8 - - SSW 0,0
16.08.2019 22:00:00 16,5 15,7 - - 15 8 - - S 0,6
16.08.2019 21:00:00 16,6 15,5 - - 15 8 - - SSW 1,6
16.08.2019 20:00:00 16,3 15,2 - - 16 9 - - S 0,8
16.08.2019 19:00:00 16,2 15,2 - - 21 11 46 25 S 1,0
16.08.2019 18:00:00 16,0 15,0 - - 22 12 - - S 1,2
16.08.2019 17:00:00 16,1 15,2 - - 21 11 - - S 1,8
16.08.2019 16:00:00 16,3 15,1 - - 18 10 50 27 S 0,6
16.08.2019 15:00:00 16,1 14,8 - - 21 11 - - S 1,2
16.08.2019 14:00:00 16,3 13,3 - - 21 11 - - S 0,0
16.08.2019 13:00:00 17,3 13,1 - - 18 10 - - S 0,0
16.08.2019 12:00:00 16,7 13,0 - - 22 12 - - S 0,0
16.08.2019 11:00:00 15,7 13,5 - - 13 7 - - S 0,2
16.08.2019 10:00:00 15,9 12,5 17,5 17,7 16 9 - - S 0,0
16.08.2019 09:00:00 15,6 12,4 - - 13 7 - - S 0,0
16.08.2019 08:00:00 14,8 12,6 - - 11 6 - - S 0,0
16.08.2019 07:00:00 14,1 12,5 - - 11 6 - - S 0,0
16.08.2019 06:00:00 14,0 12,8 - - 9 5 - - S 0,0
16.08.2019 05:00:00 13,2 11,5 - - 8 4 - - SSE 0,0
16.08.2019 04:00:00 12,5 10,5 - - 8 4 - - SSE 0,0
16.08.2019 03:00:00 12,9 10,5 - - 11 6 - - SSE 0,0
16.08.2019 02:00:00 12,2 10,3 - - 8 4 - - SSE 0,0
16.08.2019 01:00:00 12,2 10,1 - - 5 3 - - SSE 0,0
16.08.2019 00:00:00 12,7 9,9 - - 4 2 - - S 0,0
15.08.2019 23:00:00 13,1 9,9 - - 5 3 - - S 0,0
15.08.2019 22:00:00 12,9 9,7 - - 5 3 - - SSW 0,0
15.08.2019 21:00:00 14,8 9,3 - - 5 3 - - W 0,0
15.08.2019 20:00:00 16,7 9,4 - - 13 7 - - W 0,0
15.08.2019 19:00:00 17,3 8,8 - - 21 11 - - WNW 0,0
15.08.2019 18:00:00 17,9 7,9 - - 21 11 - - WNW 0,0
15.08.2019 17:00:00 18,1 9,0 - - 26 14 46 25 W 0,0
15.08.2019 16:00:00 18,3 9,0 - - 29 16 46 25 W 0,0
15.08.2019 15:00:00 18,6 8,7 - - 26 14 52 28 WNW 0,0
15.08.2019 14:00:00 17,8 8,4 - - 34 18 54 29 W 0,0
15.08.2019 13:00:00 18,1 8,7 - - 34 18 52 28 W 0,0
15.08.2019 12:00:00 17,0 10,7 - - 28 15 - - WNW 0,0
15.08.2019 11:00:00 14,8 11,7 - - 34 18 50 27 WNW 0,0
15.08.2019 10:00:00 16,0 12,6 17,7 17,9 24 13 - - W 0,0
15.08.2019 09:00:00 15,7 12,5 - - 26 14 46 25 W 0,0
15.08.2019 08:00:00 15,8 12,7 - - 24 13 - - W 0,0
15.08.2019 07:00:00 15,0 13,5 - - 15 8 - - WSW 0,0
15.08.2019 06:00:00 14,7 13,2 - - 13 7 - - SW 0,0
15.08.2019 05:00:00 14,3 12,9 - - 13 7 - - WSW 0,0
15.08.2019 04:00:00 14,4 13,0 - - 9 5 - - SW 0,0
15.08.2019 03:00:00 14,8 13,8 - - 11 6 - - WSW 0,0
15.08.2019 02:00:00 15,3 14,2 - - 11 6 - - WSW 0,0
15.08.2019 01:00:00 15,8 14,3 - - 13 7 - - W 0,2
15.08.2019 00:00:00 16,8 15,7 - - 9 5 - - SW 0,0
14.08.2019 23:00:00 17,0 16,2 - - 8 4 - - SW 0,0
14.08.2019 22:00:00 17,5 16,8 - - 13 7 - - W 5,8
14.08.2019 21:00:00 17,6 16,7 - - 5 3 - - SSW 0,0
14.08.2019 20:00:00 17,5 16,7 - - 8 4 - - SSW 1,4
14.08.2019 19:00:00 17,2 16,5 - - 11 6 - - SSW 0,4
14.08.2019 18:00:00 17,4 16,7 - - 13 7 - - SSW 0,2
14.08.2019 17:00:00 17,2 16,8 - - 13 7 - - S 0,4
14.08.2019 16:00:00 15,3 15,0 - - 5 3 - - SE 1,4
14.08.2019 15:00:00 14,5 14,1 - - 15 8 - - SE 1,8
14.08.2019 14:00:00 14,3 13,7 - - 18 10 - - SE 3,0
14.08.2019 13:00:00 14,2 13,5 - - 18 10 - - SSE 5,6
14.08.2019 12:00:00 14,2 13,3 - - 15 8 - - SSE 3,8
14.08.2019 11:00:00 15,0 13,2 - - 16 9 - - SSE 0,4
14.08.2019 10:00:00 15,2 13,0 18,0 18,0 11 6 - - SSE 0,0
14.08.2019 09:00:00 14,7 13,0 - - 9 5 - - SSE 0,0
14.08.2019 08:00:00 13,8 12,7 - - 11 6 - - SSE 0,0
14.08.2019 07:00:00 12,7 12,3 - - 8 4 - - SE 0,0
14.08.2019 06:00:00 12,5 11,7 - - 2 1 - - SE 0,6
14.08.2019 05:00:00 12,6 10,7 - - 5 3 - - SSE 0,2
14.08.2019 04:00:00 12,7 9,7 - - 5 3 - - S 0,0
14.08.2019 03:00:00 11,6 10,4 - - 0 0 - - N 0,0
14.08.2019 02:00:00 12,1 9,9 - - 4 2 - - SSE 0,0
14.08.2019 01:00:00 13,1 9,2 - - 4 2 - - S 0,0
14.08.2019 00:00:00 11,8 10,2 - - 2 1 - - S 0,0
13.08.2019 23:00:00 12,1 8,8 - - 5 3 - - SSE 0,0
13.08.2019 22:00:00 11,6 8,3 - - 4 2 - - SSE 0,0
13.08.2019 21:00:00 14,6 8,3 - - 4 2 - - W 0,0
13.08.2019 20:00:00 17,2 8,7 - - 9 5 - - WNW 0,0
13.08.2019 19:00:00 19,1 6,7 - - 16 9 - - W 0,0
13.08.2019 18:00:00 19,4 8,0 - - 15 8 - - W 0,0
13.08.2019 17:00:00 19,1 6,9 - - 18 10 - - WNW 0,0
13.08.2019 16:00:00 19,0 8,2 - - 15 8 - - WNW 0,0
13.08.2019 15:00:00 16,8 7,9 - - 15 8 - - NNW 0,0
13.08.2019 14:00:00 17,8 9,0 - - 15 8 - - WNW 0,0
13.08.2019 13:00:00 17,2 8,0 - - 18 10 - - W 0,0
13.08.2019 12:00:00 15,8 8,1 - - 18 10 - - W 0,0
13.08.2019 11:00:00 15,2 9,3 - - 16 9 - - W 0,0
13.08.2019 10:00:00 14,5 9,8 18,0 18,2 18 10 - - W 0,0
13.08.2019 09:00:00 12,8 9,7 - - 16 9 - - W 0,0
13.08.2019 08:00:00 12,1 10,3 - - 13 7 - - W 0,0
13.08.2019 07:00:00 11,1 9,9 - - 16 9 - - W 0,0
13.08.2019 06:00:00 10,6 9,7 - - 9 5 - - W 0,0
13.08.2019 05:00:00 11,2 10,3 - - 8 4 - - W 0,0
13.08.2019 04:00:00 11,4 10,4 - - 8 4 - - SW 0,4
13.08.2019 03:00:00 11,5 10,2 - - 8 4 - - WSW 3,0
13.08.2019 02:00:00 11,6 9,6 - - 5 3 - - S 0,0
13.08.2019 01:00:00 11,1 8,4 - - 2 1 - - SW 0,0
13.08.2019 00:00:00 11,3 8,2 - - 4 2 - - SW 0,0
12.08.2019 23:00:00 12,6 8,8 - - 5 3 - - SSW 0,0
12.08.2019 22:00:00 14,0 8,7 - - 5 3 - - WNW 0,0
12.08.2019 21:00:00 14,5 6,8 - - 8 4 - - W 0,0
12.08.2019 20:00:00 16,0 6,8 - - 13 7 - - W 0,0
12.08.2019 19:00:00 16,7 6,5 - - 15 8 - - W 0,0
12.08.2019 18:00:00 18,2 7,6 - - 15 8 - - NW 0,0
12.08.2019 17:00:00 17,9 6,0 - - 15 8 - - W 0,0
12.08.2019 16:00:00 16,4 7,6 - - 18 10 - - NNW 0,0
12.08.2019 15:00:00 17,3 6,4 - - 16 9 - - WNW 0,0
12.08.2019 14:00:00 16,2 7,5 - - 15 8 - - WNW 0,0
12.08.2019 13:00:00 17,3 7,9 - - 18 10 - - WNW 0,0
12.08.2019 12:00:00 16,9 7,0 - - 18 10 - - WNW 0,0
12.08.2019 11:00:00 15,7 7,3 - - 16 9 - - W 0,0
12.08.2019 10:00:00 15,2 8,2 18,4 18,4 13 7 - - W 0,0
12.08.2019 09:00:00 14,3 9,5 - - 15 8 - - W 0,0
12.08.2019 08:00:00 13,1 9,9 - - 9 5 - - W 0,0
12.08.2019 07:00:00 12,5 10,1 - - 8 4 - - W 0,0
12.08.2019 06:00:00 11,7 10,5 - - 5 3 - - W 0,0
12.08.2019 05:00:00 11,5 10,2 - - 5 3 - - SW 0,0
12.08.2019 04:00:00 11,2 9,9 - - 4 2 - - SSW 0,0
12.08.2019 03:00:00 11,3 10,2 - - 4 2 - - SSW 0,0
12.08.2019 02:00:00 11,0 10,1 - - 8 4 - - SW 0,0

tt = temperature
td = dewpoint
tt -20cm = temperature -20cm
tt -100cm = temperature -100cm
ff = wind speed
fx = gusts
dd = wind direction
rr = precipitation

Next stations